Time;durP1;ratioP1;P1;durP2;ratioP2;P2;SDS_P1;SDS_P2;PMS_P1;PMS_P2;Temp;Humidity;BMP_temperature;BMP_pressure;BME280_temperature;BME280_humidity;BME280_pressure;Samples;Min_cycle;Max_cycle;Signal;HPM_P1;HPM_P2
2022/08/11 00:01:28;;;;;;;;;;;20.10;76.30;;;;;;5021454;28;20046;-72
2022/08/11 00:04:02;;;;;;;2.67;2.47;;;20.00;76.70;;;;;;5026894;28;20015;-72
2022/08/11 00:06:36;;;;;;;2.75;2.10;;;20.00;76.80;;;;;;5022399;28;20100;-71
2022/08/11 00:09:20;;;;;;;4.35;3.28;;;19.90;77.20;;;;;;5020181;28;20053;-72
2022/08/11 00:11:53;;;;;;;2.72;2.22;;;19.90;77.10;;;;;;5006829;28;20066;-72
2022/08/11 00:14:26;;;;;;;;;;;19.90;77.20;;;;;;5017696;28;20715;-72
2022/08/11 00:17:02;;;;;;;2.87;2.60;;;19.70;77.90;;;;;;5039006;28;19928;-71
2022/08/11 00:19:48;;;;;;;4.85;2.50;;;19.60;77.80;;;;;;5022850;28;20053;-72
2022/08/11 00:22:22;;;;;;;3.10;2.60;;;19.60;78.10;;;;;;4996197;28;20061;-71
2022/08/11 00:24:54;;;;;;;3.80;2.60;;;19.60;78.20;;;;;;5010062;28;20049;-71
2022/08/11 00:27:35;;;;;;;2.83;2.45;;;19.50;79.40;;;;;;5013884;28;20095;-71
2022/08/11 00:30:10;;;;;;;2.40;2.20;;;19.50;79.10;;;;;;5014201;28;20339;-71
2022/08/11 00:32:44;;;;;;;3.53;2.58;;;19.40;79.00;;;;;;4988887;28;20385;-71
2022/08/11 00:35:17;;;;;;;3.00;2.70;;;19.30;79.40;;;;;;5024006;28;20064;-73
2022/08/11 00:37:52;;;;;;;2.83;2.50;;;19.40;79.20;;;;;;5015412;28;20038;-72
2022/08/11 00:40:43;;;;;;;3.70;2.38;;;19.30;79.60;;;;;;5005530;28;20054;-71
2022/08/11 00:43:25;;;;;;;2.92;2.63;;;19.30;79.60;;;;;;5018882;28;20068;-72
2022/08/11 00:46:20;;;;;;;5.05;2.75;;;19.30;79.70;;;;;;5028408;28;20403;-71
2022/08/11 00:49:02;;;;;;;3.65;2.55;;;19.30;79.80;;;;;;5022884;28;20036;-72
2022/08/11 00:51:53;;;;;;;3.13;2.83;;;19.10;80.20;;;;;;5003520;28;20065;-72
2022/08/11 00:54:37;;;;;;;2.97;2.60;;;19.10;80.60;;;;;;5010398;28;20038;-71
2022/08/11 00:57:25;;;;;;;;;;;19.10;80.80;;;;;;5017729;28;20045;-72
2022/08/11 01:00:21;;;;;;;4.05;2.88;;;19.00;81.20;;;;;;5013857;28;20588;-72
2022/08/11 01:03:16;;;;;;;3.63;2.80;;;18.90;81.40;;;;;;5005382;28;20046;-71
2022/08/11 01:05:54;;;;;;;3.03;2.63;;;18.80;81.70;;;;;;4993273;28;20052;-72
2022/08/11 01:08:51;;;;;;;3.55;2.83;;;18.70;82.10;;;;;;5003053;28;20064;-71
2022/08/11 01:11:41;;;;;;;3.35;2.58;;;18.80;81.70;;;;;;5020434;28;20042;-72
2022/08/11 01:14:28;;;;;;;3.88;2.90;;;18.70;82.10;;;;;;5024654;28;20049;-71
2022/08/11 01:17:31;;;;;;;3.70;2.92;;;18.60;82.40;;;;;;5016474;28;20503;-72
2022/08/11 01:20:27;;;;;;;3.58;2.90;;;18.60;82.90;;;;;;5012012;28;20048;-71
2022/08/11 01:23:18;;;;;;;3.97;2.90;;;18.50;83.00;;;;;;5024924;28;20077;-71
2022/08/11 01:26:00;;;;;;;2.80;2.60;;;18.60;82.90;;;;;;5024895;28;20147;-71
2022/08/11 01:29:19;;;;;;;2.97;2.67;;;18.50;82.90;;;;;;5004687;28;20065;-72
2022/08/11 01:32:00;;;;;;;3.85;3.00;;;18.50;83.10;;;;;;4927966;29;20040;-72
2022/08/11 01:34:56;;;;;;;3.50;3.00;;;18.50;82.90;;;;;;5018765;28;20078;-71
2022/08/11 01:37:46;;;;;;;3.22;2.92;;;18.50;83.20;;;;;;5028821;28;20127;-71
2022/08/11 01:40:36;;;;;;;3.97;2.70;;;18.40;83.50;;;;;;5009689;28;20072;-71
2022/08/11 01:46:38;;;;;;;3.13;2.83;;;18.20;84.20;;;;;;5006903;28;20647;-72
2022/08/11 01:49:35;;;;;;;3.00;2.72;;;18.20;84.50;;;;;;5021770;28;20046;-71
2022/08/11 01:52:19;;;;;;;3.08;2.47;;;18.10;84.80;;;;;;5004487;28;20052;-72
2022/08/11 01:55:26;;;;;;;3.22;2.90;;;18.10;84.90;;;;;;5007814;28;20069;-71
2022/08/11 01:58:26;;;;;;;3.95;2.78;;;18.10;84.80;;;;;;5013716;28;20053;-72
2022/08/11 02:01:30;;;;;;;3.35;3.00;;;18.00;84.90;;;;;;5000289;28;20538;-71
2022/08/11 02:04:29;;;;;;;4.78;2.95;;;18.00;85.10;;;;;;5003316;28;20034;-71
2022/08/11 02:07:19;;;;;;;4.05;3.00;;;18.00;85.50;;;;;;5018211;28;20478;-71
2022/08/11 02:13:50;;;;;;;3.47;3.17;;;17.90;85.60;;;;;;5070922;22;20035;-71
2022/08/11 02:16:41;;;;;;;3.80;3.50;;;17.90;85.70;;;;;;5064482;28;20054;-71
2022/08/11 02:25:19;;;;;;;3.65;3.30;;;17.80;85.90;;;;;;5085029;28;20812;-71
2022/08/11 02:28:03;;;;;;;4.40;3.60;;;17.70;86.40;;;;;;5066953;28;20041;-71
2022/08/11 02:30:40;;;;;;;3.72;3.13;;;17.70;86.60;;;;;;5057648;28;20051;-70
2022/08/11 02:33:24;;;;;;;3.85;3.55;;;17.70;87.00;;;;;;5071953;28;20044;-71
2022/08/11 02:36:13;;;;;;;3.00;2.70;;;17.70;87.50;;;;;;5036458;28;20056;-71
2022/08/11 02:39:05;;;;;;;3.83;3.42;;;17.70;86.90;;;;;;5070622;28;20132;-71
2022/08/11 02:42:22;;;;;;;4.07;2.85;;;17.80;86.80;;;;;;5049227;28;20053;-71
2022/08/11 02:45:06;;;;;;;3.67;3.28;;;17.70;86.80;;;;;;5054500;28;20041;-71
2022/08/11 02:51:23;;;;;;;3.63;3.20;;;17.60;87.20;;;;;;5073508;28;20046;-72
2022/08/11 02:54:12;;;;;;;3.35;3.00;;;17.60;87.50;;;;;;5067528;28;20278;-70
2022/08/11 02:57:08;;;;;;;4.47;2.95;;;17.50;87.70;;;;;;5084239;28;20037;-71
2022/08/11 03:00:12;;;;;;;4.28;3.17;;;17.50;87.80;;;;;;5070595;28;20051;-71
2022/08/11 03:02:53;;;;;;;4.43;3.30;;;17.50;88.00;;;;;;5048465;28;20044;-71
2022/08/11 03:05:30;;;;;;;4.28;3.58;;;17.40;87.80;;;;;;5071494;28;20043;-71
2022/08/11 03:08:27;;;;;;;5.75;3.30;;;17.50;87.90;;;;;;5070212;28;20036;-71
2022/08/11 03:17:39;;;;;;;4.05;3.20;;;17.30;88.40;;;;;;5070012;28;20037;-71
2022/08/11 03:20:27;;;;;;;5.18;3.53;;;17.20;88.90;;;;;;5050725;28;20131;-71
2022/08/11 03:23:10;;;;;;;8.82;4.07;;;17.20;88.90;;;;;;5054432;28;20043;-71
2022/08/11 03:26:00;;;;;;;4.97;3.28;;;17.20;88.70;;;;;;5054765;28;20044;-72
2022/08/11 03:28:54;;;;;;;3.20;3.00;;;17.30;88.80;;;;;;5048102;28;20040;-71
2022/08/11 03:31:46;;;;;;;4.38;3.47;;;17.30;88.60;;;;;;5089308;28;20044;-71
2022/08/11 03:34:24;;;;;;;4.43;3.00;;;17.30;88.60;;;;;;5066832;28;20035;-71
2022/08/11 03:41:41;;;;;;;3.80;3.40;;;17.10;89.30;;;;;;5070649;28;20044;-71
2022/08/11 03:43:21;;;;;;;5.53;3.22;;;17.10;89.20;;;;;;5037490;28;20037;-71
2022/08/11 03:46:13;;;;;;;4.32;3.55;;;17.20;89.40;;;;;;5057845;28;20047;-71
2022/08/11 03:49:04;;;;;;;3.83;3.13;;;17.20;89.40;;;;;;5054062;28;20040;-71
2022/08/11 03:51:53;;;;;;;4.93;3.60;;;17.10;89.60;;;;;;5058157;28;20037;-71
2022/08/11 03:54:40;;;;;;;3.92;3.28;;;17.00;89.80;;;;;;5058719;28;20045;-71
2022/08/11 03:57:44;;;;;;;5.50;2.97;;;16.90;90.00;;;;;;5054353;28;20067;-71
2022/08/11 04:00:44;;;;;;;4.10;2.95;;;16.90;90.20;;;;;;5079709;28;20037;-71
2022/08/11 04:03:22;;;;;;;4.07;2.97;;;16.80;90.30;;;;;;5054324;28;20053;-71
2022/08/11 04:05:56;;;;;;;5.15;2.80;;;16.90;90.30;;;;;;5073759;28;20048;-71
2022/08/11 04:08:57;;;;;;;4.90;3.03;;;16.90;90.40;;;;;;5074242;28;20033;-71
2022/08/11 04:11:43;;;;;;;3.53;3.05;;;16.90;90.40;;;;;;5087088;28;20047;-70
2022/08/11 04:17:52;;;;;;;3.58;3.22;;;16.90;90.60;;;;;;5086241;28;20051;-71
2022/08/11 04:20:30;;;;;;;3.53;3.22;;;16.80;90.50;;;;;;5058239;28;20048;-71
2022/08/11 04:23:25;;;;;;;3.40;3.10;;;16.80;90.70;;;;;;5072132;28;20119;-71
2022/08/11 04:26:36;;;;;;;5.63;2.80;;;16.90;90.50;;;;;;5052358;28;20060;-72
2022/08/11 04:29:24;;;;;;;3.60;3.13;;;16.90;90.60;;;;;;5054817;28;20052;-71
2022/08/11 04:32:18;;;;;;;10.27;3.67;;;16.80;90.70;;;;;;5041741;28;20048;-71
2022/08/11 04:35:28;;;;;;;5.55;3.95;;;16.80;90.80;;;;;;5048331;28;20041;-71
2022/08/11 04:38:19;;;;;;;3.90;3.22;;;16.80;91.00;;;;;;5032000;28;20048;-71
2022/08/11 04:41:13;;;;;;;6.45;3.60;;;16.80;91.10;;;;;;5090061;28;20050;-71
2022/08/11 04:43:55;;;;;;;5.55;4.03;;;16.80;91.10;;;;;;5042160;28;20037;-71
2022/08/11 04:46:48;;;;;;;5.10;3.92;;;16.70;91.40;;;;;;5062057;28;20038;-71
2022/08/11 05:02:34;;;;;;;12.60;3.88;;;16.80;92.00;;;;;;5053238;28;20055;-70
2022/08/11 05:05:32;;;;;;;4.40;4.00;;;16.70;92.40;;;;;;5076259;28;20052;-72
2022/08/11 05:08:25;;;;;;;6.93;3.70;;;16.70;92.50;;;;;;5049387;28;20121;-71
2022/08/11 05:11:21;;;;;;;8.90;3.60;;;16.80;92.30;;;;;;5055620;28;20048;-72
2022/08/11 05:35:08;;;;;;;12.77;4.13;;;16.90;93.90;;;;;;5058378;28;20067;-71
2022/08/11 05:57:41;;;;;;;8.18;6.50;;;17.10;95.20;;;;;;5072545;28;20040;-71
2022/08/11 06:00:09;;;;;;;9.80;5.97;;;17.20;95.60;;;;;;5055460;28;20060;-71
2022/08/11 06:02:45;;;;;;;8.25;6.50;;;17.20;96.20;;;;;;5053163;28;20041;-71
2022/08/11 06:05:31;;;;;;;8.55;5.95;;;17.20;96.60;;;;;;5069103;28;20040;-70
2022/08/11 06:07:58;;;;;;;11.32;6.53;;;17.20;97.00;;;;;;5077883;28;20113;-69
2022/08/11 06:10:50;;;;;;;8.68;6.55;;;17.20;97.30;;;;;;5073283;28;20045;-70
2022/08/11 06:13:24;;;;;;;10.73;6.78;;;17.20;97.30;;;;;;5056661;28;20466;-69
2022/08/11 06:15:57;;;;;;;8.02;5.80;;;17.30;97.50;;;;;;5038877;28;20054;-69
2022/08/11 06:18:30;;;;;;;5.97;5.38;;;17.30;97.40;;;;;;5079422;28;20135;-69
2022/08/11 06:21:09;;;;;;;6.70;5.68;;;17.30;97.40;;;;;;5072935;28;20397;-68
2022/08/11 06:23:42;;;;;;;6.70;5.05;;;17.40;97.30;;;;;;5068422;28;20044;-69
2022/08/11 06:26:14;;;;;;;10.98;5.60;;;17.50;97.30;;;;;;5053459;28;20052;-69
2022/08/11 06:28:47;;;;;;;5.00;4.53;;;17.60;97.20;;;;;;5058563;28;20036;-69
2022/08/11 06:31:23;;;;;;;9.73;5.82;;;17.60;97.20;;;;;;5075897;28;20037;-69
2022/08/11 06:34:04;;;;;;;5.65;5.10;;;17.60;97.20;;;;;;5065865;28;20398;-69
2022/08/11 06:36:59;;;;;;;7.50;5.45;;;17.60;97.20;;;;;;5084368;28;20068;-69
2022/08/11 06:39:47;;;;;;;7.63;5.95;;;17.70;97.40;;;;;;5078720;28;20035;-70
2022/08/11 06:42:27;;;;;;;7.28;5.43;;;17.70;97.60;;;;;;5063392;28;20788;-70
2022/08/11 06:45:25;;;;;;;5.68;5.07;;;17.80;97.70;;;;;;5057948;28;20123;-72
2022/08/11 06:47:53;;;;;;;7.68;5.13;;;17.80;97.70;;;;;;5070296;28;20068;-69
2022/08/11 06:53:19;;;;;;;7.97;4.93;;;17.90;97.50;;;;;;5073318;28;20494;-72
2022/08/11 07:01:46;;;;;;;5.32;4.55;;;18.10;96.80;;;;;;5079645;28;20051;-69
2022/08/11 07:04:50;;;;;;;6.90;4.72;;;18.20;96.70;;;;;;5044274;28;20041;-70
2022/08/11 07:16:54;;;;;;;5.60;4.13;;;18.60;95.90;;;;;;5075384;28;20062;-70
2022/08/11 07:31:08;;;;;;;8.63;3.97;;;19.20;95.70;;;;;;5073073;28;20044;-70
2022/08/11 07:33:50;;;;;;;6.40;4.03;;;19.30;95.60;;;;;;5054801;28;20114;-70
2022/08/11 07:36:27;;;;;;;8.32;3.80;;;19.40;94.80;;;;;;5073764;28;20124;-71
2022/08/11 07:38:59;;;;;;;4.70;4.20;;;19.50;95.00;;;;;;5074228;28;20044;-71
2022/08/11 07:41:33;;;;;;;5.57;4.30;;;19.60;94.70;;;;;;5061141;28;20055;-70
2022/08/11 07:44:10;;;;;;;5.40;4.22;;;19.70;94.40;;;;;;5071078;28;20045;-70
2022/08/11 07:52:32;;;;;;;6.63;3.60;;;20.10;94.00;;;;;;5076097;28;20029;-71
2022/08/11 07:55:06;;;;;;;4.72;3.85;;;20.20;93.20;;;;;;5072704;28;20038;-70
2022/08/11 08:20:21;;;;;;;7.95;4.32;;;21.20;91.80;;;;;;5069675;28;20042;-71
2022/08/11 08:22:57;;;;;;;5.88;3.97;;;21.30;91.60;;;;;;5080888;28;20499;-71
2022/08/11 08:25:32;;;;;;;4.47;3.70;;;21.50;91.70;;;;;;5072565;28;20045;-71
2022/08/11 08:28:12;;;;;;;5.85;3.70;;;21.60;91.60;;;;;;5054490;28;20036;-71
2022/08/11 08:30:48;;;;;;;8.38;3.60;;;21.70;91.10;;;;;;5049592;28;20398;-71
2022/08/11 08:33:29;;;;;;;4.88;3.72;;;21.80;91.40;;;;;;5081264;28;20038;-69
2022/08/11 08:36:14;;;;;;;8.05;4.45;;;21.90;90.80;;;;;;5037510;28;20037;-72
2022/08/11 08:38:52;;;;;;;4.05;3.63;;;22.10;90.80;;;;;;5060131;28;20044;-71
2022/08/11 08:41:28;;;;;;;4.63;4.05;;;22.20;90.60;;;;;;5070260;28;20067;-71
2022/08/11 08:44:08;;;;;;;4.55;3.38;;;22.30;90.20;;;;;;5052221;28;20520;-72
2022/08/11 08:46:49;;;;;;;5.10;3.65;;;22.40;89.20;;;;;;5069693;28;20123;-72
2022/08/11 08:49:37;;;;;;;4.45;3.42;;;22.50;89.60;;;;;;5047076;28;20568;-70
2022/08/11 08:52:13;;;;;;;3.88;3.22;;;22.70;89.00;;;;;;5073487;28;20475;-70
2022/08/11 08:54:52;;;;;;;4.32;3.20;;;22.80;88.20;;;;;;5049926;28;20035;-74
2022/08/11 08:57:27;;;;;;;3.78;3.05;;;22.90;87.40;;;;;;5075451;28;20033;-71
2022/08/11 09:00:01;;;;;;;6.28;3.00;;;23.00;85.40;;;;;;5082008;28;20064;-68
2022/08/11 09:02:33;;;;;;;4.20;2.95;;;23.10;86.10;;;;;;5079138;28;20377;-68
2022/08/11 09:05:08;;;;;;;4.18;3.00;;;23.20;85.60;;;;;;5078596;28;20048;-70
2022/08/11 09:07:40;;;;;;;5.00;2.90;;;23.30;83.60;;;;;;5054187;28;20522;-69
2022/08/11 09:10:16;;;;;;;2.83;2.50;;;23.40;84.10;;;;;;5064230;28;20040;-69
2022/08/11 09:12:48;;;;;;;3.03;2.72;;;23.50;84.10;;;;;;5064449;28;20032;-72
2022/08/11 09:15:22;;;;;;;4.25;3.47;;;23.60;83.80;;;;;;5061352;28;20086;-69
2022/08/11 09:18:02;;;;;;;3.55;2.80;;;23.70;83.90;;;;;;5064092;28;20103;-70
2022/08/11 09:20:37;;;;;;;7.78;2.90;;;23.80;82.40;;;;;;5090596;28;20051;-71
2022/08/11 09:28:51;;;;;;;3.85;3.25;;;24.10;79.40;;;;;;5077113;28;20051;-70
2022/08/11 09:31:25;;;;;;;4.35;2.95;;;24.20;79.10;;;;;;5055818;28;20040;-71
2022/08/11 09:33:57;;;;;;;2.85;2.53;;;24.40;79.00;;;;;;5051666;28;20074;-70
2022/08/11 09:42:12;;;;;;;3.50;2.80;;;24.70;74.80;;;;;;5042194;28;20049;-70
2022/08/11 09:44:47;;;;;;;4.97;3.20;;;24.80;74.70;;;;;;5073267;28;20037;-70
2022/08/11 09:47:24;;;;;;;3.88;2.50;;;24.80;74.30;;;;;;5046912;28;20079;-71
2022/08/11 09:49:59;;;;;;;4.70;2.65;;;24.90;74.00;;;;;;5062529;28;20055;-71
2022/08/11 09:52:36;;;;;;;4.18;2.67;;;25.00;73.70;;;;;;5070757;28;20049;-71
2022/08/11 09:55:11;;;;;;;5.40;2.70;;;25.00;73.20;;;;;;5057671;28;20040;-71
2022/08/11 10:00:39;;;;;;;3.47;2.70;;;25.20;71.60;;;;;;5074943;28;20082;-70
2022/08/11 10:03:14;;;;;;;3.42;2.42;;;25.30;72.40;;;;;;5071671;28;20039;-70
2022/08/11 10:09:05;;;;;;;6.57;2.67;;;25.40;71.00;;;;;;4971686;28;20050;-70
2022/08/11 10:11:39;;;;;;;6.72;3.15;;;25.50;70.70;;;;;;4990982;28;20058;-70
2022/08/11 10:17:06;;;;;;;3.55;2.40;;;25.60;70.50;;;;;;5069780;28;20538;-70
2022/08/11 10:19:40;;;;;;;3.58;2.83;;;25.70;70.60;;;;;;5088028;28;20044;-69
2022/08/11 10:28:11;;;;;;;5.68;2.92;;;25.90;69.50;;;;;;5074079;28;20423;-70
2022/08/11 10:36:43;;;;;;;5.10;2.63;;;26.30;68.80;;;;;;5078013;28;20036;-70
2022/08/11 10:39:17;;;;;;;4.55;3.15;;;26.30;68.80;;;;;;5075272;28;20119;-70
2022/08/11 10:44:44;;;;;;;4.30;2.85;;;26.50;67.90;;;;;;5057533;28;20495;-69
2022/08/11 10:47:35;;;;;;;4.25;2.60;;;26.50;68.80;;;;;;5077229;28;20044;-69
2022/08/11 10:58:48;;;;;;;4.72;2.42;;;26.60;68.20;;;;;;5073236;28;20064;-69
2022/08/11 11:01:21;;;;;;;2.80;1.95;;;26.80;66.80;;;;;;5073557;28;20071;-70
2022/08/11 11:04:17;;;;;;;5.20;2.40;;;26.90;66.00;;;;;;5071674;28;20068;-70
2022/08/11 11:07:15;;;;;;;3.38;2.33;;;26.90;66.60;;;;;;5068797;28;20052;-70
2022/08/11 11:09:49;;;;;;;5.68;3.00;;;26.90;66.20;;;;;;5079487;28;20040;-69
2022/08/11 11:18:34;;;;;;;6.85;2.70;;;27.10;65.40;;;;;;5066922;28;20043;-71
2022/08/11 11:21:09;;;;;;;2.75;2.28;;;27.20;65.90;;;;;;5068493;28;20044;-70
2022/08/11 11:23:59;;;;;;;4.90;2.97;;;27.30;64.60;;;;;;5071176;28;20046;-70
2022/08/11 11:26:38;;;;;;;3.75;2.10;;;27.30;64.50;;;;;;5075967;28;20046;-70
2022/08/11 11:29:27;;;;;;;2.92;2.40;;;27.40;64.90;;;;;;5078771;28;20037;-70
2022/08/11 11:32:29;;;;;;;5.53;2.60;;;27.40;64.40;;;;;;5075527;28;20032;-68
2022/08/11 11:35:35;;;;;;;2.78;2.38;;;27.50;63.30;;;;;;5067087;28;20159;-69
2022/08/11 11:38:08;;;;;;;4.25;2.70;;;27.50;64.40;;;;;;5044143;28;20048;-70
2022/08/11 11:40:41;;;;;;;2.55;2.30;;;27.50;64.80;;;;;;5052260;28;20040;-69
2022/08/11 11:43:12;;;;;;;4.93;2.67;;;27.70;64.50;;;;;;5059832;28;20042;-70
2022/08/11 11:45:44;;;;;;;4.50;2.70;;;27.80;63.60;;;;;;5078905;28;20647;-70
2022/08/11 11:48:16;;;;;;;4.68;2.78;;;27.80;62.30;;;;;;5082091;28;20072;-70
2022/08/11 11:50:48;;;;;;;2.70;2.50;;;27.90;62.40;;;;;;5058454;28;20032;-70
2022/08/11 11:53:21;;;;;;;6.00;2.70;;;27.80;63.80;;;;;;5036695;28;20512;-70
2022/08/11 11:55:53;;;;;;;3.08;2.78;;;27.80;62.70;;;;;;5043559;28;20594;-70
2022/08/11 12:01:19;;;;;;;2.95;2.30;;;27.90;62.60;;;;;;5060677;28;20036;-70
2022/08/11 12:03:53;;;;;;;4.18;2.15;;;28.00;62.20;;;;;;5072565;28;20040;-69
2022/08/11 12:06:26;;;;;;;3.55;2.47;;;28.00;61.70;;;;;;5058064;28;20036;-70
2022/08/11 12:08:59;;;;;;;7.25;2.80;;;28.00;61.50;;;;;;5077334;28;20048;-70
2022/08/11 12:14:24;;;;;;;5.18;2.70;;;28.30;61.40;;;;;;5067130;28;20039;-70
2022/08/11 12:16:57;;;;;;;3.20;2.10;;;28.30;61.10;;;;;;5051087;28;20047;-70
2022/08/11 12:19:29;;;;;;;4.88;2.53;;;28.30;60.50;;;;;;5072666;28;20124;-70
2022/08/11 12:27:42;;;;;;;2.80;2.47;;;28.50;60.10;;;;;;5073753;28;20115;-71
2022/08/11 12:30:14;;;;;;;2.75;2.17;;;28.60;59.80;;;;;;5063298;28;20036;-70
2022/08/11 12:32:46;;;;;;;3.53;2.80;;;28.50;58.30;;;;;;5070391;28;20033;-71
2022/08/11 12:35:18;;;;;;;2.80;2.40;;;28.50;59.20;;;;;;5054065;28;20558;-71
2022/08/11 12:38:02;;;;;;;3.38;2.35;;;28.50;60.00;;;;;;5063545;28;20577;-70
2022/08/11 12:46:24;;;;;;;3.88;2.33;;;28.80;58.90;;;;;;5074717;28;20051;-70
2022/08/11 12:51:57;;;;;;;6.95;2.63;;;29.10;58.50;;;;;;5079215;28;20051;-70
2022/08/11 12:54:37;;;;;;;3.88;2.20;;;29.20;57.80;;;;;;5069537;28;20044;-70
2022/08/11 13:05:52;;;;;;;4.32;2.70;;;28.80;58.00;;;;;;5060325;28;20040;-71
2022/08/11 13:08:28;;;;;;;3.78;1.98;;;29.00;57.90;;;;;;5049013;28;20650;-71
2022/08/11 13:13:55;;;;;;;4.35;2.53;;;29.20;57.60;;;;;;5068126;28;20518;-70
2022/08/11 13:16:30;;;;;;;3.30;2.30;;;29.20;56.50;;;;;;5074099;28;20101;-70
2022/08/11 13:19:02;;;;;;;4.63;2.35;;;29.40;56.80;;;;;;5069859;28;20036;-70
2022/08/11 13:21:34;;;;;;;3.92;2.13;;;29.50;56.60;;;;;;5071381;28;20406;-71
2022/08/11 13:24:01;;;;;;;2.80;2.30;;;29.60;55.70;;;;;;5073419;28;20037;-70
2022/08/11 13:26:36;;;;;;;9.65;2.72;;;29.60;56.90;;;;;;5069947;28;20037;-70
2022/08/11 13:29:08;;;;;;;3.42;2.30;;;29.70;54.70;;;;;;5081020;28;20506;-70
2022/08/11 13:31:41;;;;;;;;;;;29.70;55.30;;;;;;5073163;28;20813;-70
2022/08/11 13:34:15;;;;;;;3.65;2.28;;;29.60;55.90;;;;;;5068134;28;19927;-70
2022/08/11 13:36:50;;;;;;;3.55;2.33;;;29.40;56.30;;;;;;5078569;28;20086;-70
2022/08/11 13:39:18;;;;;;;3.22;1.95;;;29.00;55.80;;;;;;5075874;28;20079;-70
2022/08/11 13:41:50;;;;;;;3.35;2.28;;;28.90;56.20;;;;;;5080071;28;20040;-70
2022/08/11 13:44:26;;;;;;;3.80;2.40;;;29.00;55.90;;;;;;5052768;28;20072;-70
2022/08/11 13:47:02;;;;;;;3.38;2.40;;;29.20;56.30;;;;;;5078670;28;20055;-70
2022/08/11 13:49:37;;;;;;;2.65;2.45;;;29.50;55.10;;;;;;5059214;28;20036;-69
2022/08/11 13:52:06;;;;;;;3.17;2.47;;;29.70;55.40;;;;;;5077373;28;20040;-70
2022/08/11 13:54:39;;;;;;;4.55;2.70;;;29.90;54.70;;;;;;5068025;28;20510;-70
2022/08/11 13:57:14;;;;;;;5.80;2.10;;;30.00;55.40;;;;;;5055140;28;20060;-70
2022/08/11 13:59:53;;;;;;;4.35;2.50;;;30.10;54.50;;;;;;5066185;28;20509;-70
2022/08/11 14:02:27;;;;;;;3.20;2.42;;;29.90;54.00;;;;;;5068908;28;20079;-70
2022/08/11 14:05:11;;;;;;;4.32;2.30;;;29.90;54.50;;;;;;5057222;28;20032;-70
2022/08/11 14:07:57;;;;;;;4.78;2.33;;;30.10;53.70;;;;;;5069880;28;20040;-70
2022/08/11 14:10:32;;;;;;;2.47;2.15;;;30.00;53.60;;;;;;5063104;28;20032;-71
2022/08/11 14:16:10;;;;;;;2.85;2.25;;;30.00;53.50;;;;;;5071126;28;20033;-68
2022/08/11 14:18:45;;;;;;;4.07;2.25;;;30.00;52.50;;;;;;5068802;28;20032;-72
2022/08/11 14:24:11;;;;;;;3.72;2.17;;;30.20;52.90;;;;;;5071446;28;20040;-77
2022/08/11 14:26:45;;;;;;;3.15;2.45;;;30.40;52.40;;;;;;5060308;28;20063;-81
2022/08/11 14:29:20;;;;;;;2.72;2.30;;;30.50;52.60;;;;;;5055433;28;20050;-72
2022/08/11 14:31:53;;;;;;;2.20;2.00;;;30.70;52.50;;;;;;5082229;28;20120;-67
2022/08/11 14:34:28;;;;;;;4.10;2.65;;;30.70;51.10;;;;;;5064108;28;20055;-68
2022/08/11 14:37:05;;;;;;;5.40;2.38;;;30.80;52.10;;;;;;5066320;28;20039;-66
2022/08/11 14:39:44;;;;;;;2.80;2.22;;;31.00;52.30;;;;;;5070755;28;20060;-69
2022/08/11 14:48:04;;;;;;;4.40;1.98;;;31.30;50.80;;;;;;5084923;22;20044;-87
2022/08/11 14:50:36;;;;;;;3.92;2.17;;;31.50;50.10;;;;;;5051911;28;20379;-87
2022/08/11 14:53:10;;;;;;;3.03;1.90;;;31.60;50.20;;;;;;5031566;28;20037;-84
2022/08/11 14:58:28;;;;;;;3.20;2.75;;;31.80;49.10;;;;;;5046992;28;20044;-87
2022/08/11 15:01:02;;;;;;;3.83;1.88;;;31.90;48.30;;;;;;5073220;23;20045;-71
2022/08/11 15:03:34;;;;;;;2.42;2.20;;;32.00;47.20;;;;;;5063021;28;20040;-71
2022/08/11 15:06:06;;;;;;;2.35;2.13;;;32.10;47.40;;;;;;5079752;28;20044;-71
2022/08/11 15:08:54;;;;;;;5.25;2.63;;;32.20;47.40;;;;;;5050203;28;20040;-71
2022/08/11 15:17:06;;;;;;;2.47;1.90;;;32.50;47.10;;;;;;5049071;28;20048;-71
2022/08/11 15:17:11;;;;;;;4.68;2.40;;;32.60;46.20;;;;;;5050194;28;20119;-71
2022/08/11 15:24:18;;;;;;;5.53;3.13;;;32.60;46.30;;;;;;5056878;28;20037;-71
2022/08/11 15:25:19;;;;;;;6.07;2.72;;;32.70;45.60;;;;;;5047819;28;20410;-71
2022/08/11 15:39:33;;;;;;;5.93;3.22;;;32.60;44.50;;;;;;5047510;28;20133;-71
2022/08/11 15:47:57;;;;;;;3.05;2.00;;;33.20;44.30;;;;;;5052776;28;20072;-71
2022/08/11 15:50:33;;;;;;;6.65;2.38;;;33.30;44.30;;;;;;5072219;28;20403;-71
2022/08/11 15:53:12;;;;;;;3.00;1.77;;;33.50;44.40;;;;;;5073449;28;20036;-71
2022/08/11 15:55:44;;;;;;;2.33;1.98;;;33.80;43.70;;;;;;5053927;28;20060;-71
2022/08/11 16:04:11;;;;;;;2.35;1.88;;;34.10;42.30;;;;;;5055171;28;20048;-71
2022/08/11 16:07:01;;;;;;;;;;;33.90;42.50;;;;;;5069714;28;20049;-71
2022/08/11 16:10:06;;;;;;;4.85;2.60;;;33.90;43.30;;;;;;5054717;28;19967;-71
2022/08/11 16:18:40;;;;;;;60.40;11.75;;;33.40;44.00;;;;;;5068738;28;20054;-71
2022/08/11 16:21:14;;;;;;;;;;;33.60;43.50;;;;;;5075061;28;20083;-71
2022/08/11 16:23:48;;;;;;;125.43;22.67;;;33.50;43.50;;;;;;5053456;28;20406;-71
2022/08/11 16:26:22;;;;;;;11.50;3.30;;;33.40;43.70;;;;;;5041112;28;20060;-71
2022/08/11 16:29:00;;;;;;;32.97;6.68;;;33.20;44.00;;;;;;5024235;28;20041;-71
2022/08/11 16:31:33;;;;;;;76.95;11.38;;;33.10;43.80;;;;;;5013156;28;20033;-74
2022/08/11 16:38:33;;;;;;;397.63;44.97;;;33.10;42.90;;;;;;5007870;28;20056;-71
2022/08/11 16:40:05;;;;;;;28.83;6.68;;;33.40;43.70;;;;;;4988708;28;20058;-71
2022/08/11 16:48:14;;;;;;;3.08;2.30;;;33.50;43.00;;;;;;5027462;28;20480;-71
2022/08/11 16:50:46;;;;;;;3.40;2.10;;;33.40;43.20;;;;;;5031688;28;20045;-71
2022/08/11 16:53:18;;;;;;;12.95;3.00;;;33.50;42.60;;;;;;5031958;28;20037;-71
2022/08/11 16:55:52;;;;;;;5.35;2.55;;;33.80;42.50;;;;;;5028291;28;20065;-72
2022/08/11 17:01:20;;;;;;;2.72;2.22;;;34.00;41.40;;;;;;5028221;28;20043;-71
2022/08/11 17:18:42;;;;;;;3.17;1.90;;;34.40;40.50;;;;;;5023853;28;20688;-71
2022/08/11 17:21:17;;;;;;;5.40;1.98;;;34.30;41.80;;;;;;4999957;28;20125;-72
2022/08/11 17:24:05;;;;;;;4.70;1.90;;;34.40;40.70;;;;;;5013010;28;20044;-71
2022/08/11 17:26:57;;;;;;;5.03;1.98;;;34.40;41.00;;;;;;4987723;28;20077;-72
2022/08/11 17:29:47;;;;;;;4.20;1.90;;;34.50;40.40;;;;;;5027400;28;20040;-71
2022/08/11 17:35:32;;;;;;;3.97;2.40;;;34.10;40.30;;;;;;5018926;28;20056;-71
2022/08/11 17:38:19;;;;;;;4.15;1.83;;;33.90;40.00;;;;;;5019765;28;20073;-71
2022/08/11 17:49:36;;;;;;;3.97;1.80;;;33.40;41.80;;;;;;5028115;28;20290;-72
2022/08/11 18:00:41;;;;;;;3.97;2.10;;;31.00;43.00;;;;;;5027457;28;20042;-71
2022/08/11 18:03:28;;;;;;;2.38;1.80;;;30.40;44.40;;;;;;5012245;28;20046;-71
2022/08/11 18:06:02;;;;;;;3.35;1.70;;;29.80;44.70;;;;;;5028435;28;20054;-73
